createdAt,value
2022-11-20T00:00:10.830Z,99312.16
2022-11-20T00:02:38.206Z,99312.75
2022-11-20T00:05:05.142Z,99308.00
2022-11-20T00:07:32.083Z,99315.41
2022-11-20T00:09:58.976Z,99311.41
2022-11-20T00:12:25.814Z,99309.19
2022-11-20T00:14:52.614Z,99302.84
2022-11-20T00:17:19.388Z,99301.41
2022-11-20T00:19:46.200Z,99297.00
2022-11-20T00:22:13.063Z,99292.72
2022-11-20T00:24:43.025Z,99297.25
2022-11-20T00:27:10.114Z,99298.38
2022-11-20T00:29:36.942Z,99292.28
2022-11-20T00:32:03.780Z,99284.50
2022-11-20T00:34:30.588Z,99284.00
2022-11-20T00:36:57.387Z,99285.38
2022-11-20T00:39:24.331Z,99283.06
2022-11-20T00:41:51.178Z,99283.47
2022-11-20T00:44:18.037Z,99291.97
2022-11-20T00:46:44.904Z,99288.59
2022-11-20T00:49:11.711Z,99287.50
2022-11-20T00:51:38.498Z,99293.84
2022-11-20T00:54:05.343Z,99287.59
2022-11-20T00:56:32.209Z,99278.69
2022-11-20T00:59:00.506Z,99281.38
2022-11-20T01:01:27.884Z,99292.09
2022-11-20T01:03:55.582Z,99285.03
2022-11-20T01:06:23.679Z,99283.81
2022-11-20T01:08:51.916Z,99280.31
2022-11-20T01:11:20.074Z,99288.19
2022-11-20T01:13:47.541Z,99285.88
2022-11-20T01:16:21.619Z,99290.88
2022-11-20T01:18:49.628Z,99291.63
2022-11-20T01:21:17.952Z,99276.38
2022-11-20T01:23:45.333Z,99274.44
2022-11-20T01:26:17.004Z,99266.09
2022-11-20T01:28:44.138Z,99263.78
2022-11-20T01:31:12.021Z,99269.03
2022-11-20T01:33:38.811Z,99265.50
2022-11-20T01:36:06.393Z,99274.25
2022-11-20T01:38:33.197Z,99276.59
2022-11-20T01:41:00.036Z,99278.53
2022-11-20T01:43:26.964Z,99270.09
2022-11-20T01:45:58.653Z,99270.00
2022-11-20T01:48:27.409Z,99261.94
2022-11-20T01:50:54.691Z,99275.06
2022-11-20T01:53:24.753Z,99271.09
2022-11-20T01:55:54.220Z,99267.78
2022-11-20T01:58:23.280Z,99264.97
2022-11-20T02:00:50.136Z,99260.81
2022-11-20T02:03:18.030Z,99253.81
2022-11-20T02:05:52.078Z,99253.50
2022-11-20T02:08:20.498Z,99255.94
2022-11-20T02:10:47.287Z,99255.44
2022-11-20T02:13:14.161Z,99254.91
2022-11-20T02:15:41.173Z,99266.34
2022-11-20T02:18:08.636Z,99265.41
2022-11-20T02:20:35.497Z,99267.47
2022-11-20T02:23:20.359Z,99260.16
2022-11-20T02:25:48.057Z,99251.84
2022-11-20T02:28:15.842Z,99251.97
2022-11-20T02:30:42.631Z,99251.38
2022-11-20T02:33:09.419Z,99248.19
2022-11-20T02:35:36.161Z,99242.47
2022-11-20T02:38:03.467Z,99242.19
2022-11-20T02:40:30.277Z,99238.06
2022-11-20T02:42:57.400Z,99243.06
2022-11-20T02:45:25.205Z,99235.47
2022-11-20T02:47:52.299Z,99227.75
2022-11-20T02:50:19.244Z,99227.38
2022-11-20T02:52:46.044Z,99239.22
2022-11-20T02:55:12.849Z,99235.69
2022-11-20T02:57:39.614Z,99232.16
2022-11-20T03:00:06.756Z,99229.16
2022-11-20T03:02:33.581Z,99238.81
2022-11-20T03:05:00.452Z,99233.09
2022-11-20T03:07:27.345Z,99239.69
2022-11-20T03:09:54.114Z,99240.41
2022-11-20T03:12:20.955Z,99238.59
2022-11-20T03:14:52.577Z,99236.25
2022-11-20T03:17:20.039Z,99229.75
2022-11-20T03:19:46.809Z,99236.81
2022-11-20T03:22:13.617Z,99236.22
2022-11-20T03:24:40.436Z,99238.47
2022-11-20T03:27:07.462Z,99234.97
2022-11-20T03:29:35.897Z,99237.19
2022-11-20T03:32:02.747Z,99232.53
2022-11-20T03:34:29.586Z,99237.66
2022-11-20T03:36:56.383Z,99229.72
2022-11-20T03:39:23.395Z,99233.97
2022-11-20T03:41:50.620Z,99231.66
2022-11-20T03:44:17.419Z,99220.22
2022-11-20T03:46:44.205Z,99224.16
2022-11-20T03:49:10.987Z,99209.88
2022-11-20T03:51:37.773Z,99221.91
2022-11-20T03:54:08.259Z,99213.88
2022-11-20T03:56:36.607Z,99220.56
2022-11-20T03:59:03.531Z,99218.44
2022-11-20T04:01:32.230Z,99213.69
2022-11-20T04:03:59.139Z,99218.94
2022-11-20T04:06:25.923Z,99223.78
2022-11-20T04:08:54.540Z,99204.13
2022-11-20T04:11:24.496Z,99211.22
2022-11-20T04:13:52.593Z,99208.78
2022-11-20T04:16:19.906Z,99208.25
2022-11-20T04:18:46.737Z,99211.91
2022-11-20T04:21:13.530Z,99209.34
2022-11-20T04:23:40.357Z,99212.03
2022-11-20T04:26:10.859Z,99220.22
2022-11-20T04:28:38.106Z,99221.47
2022-11-20T04:31:06.273Z,99221.09
2022-11-20T04:33:34.460Z,99223.91
2022-11-20T04:36:02.246Z,99224.47
2022-11-20T04:38:29.080Z,99212.16
2022-11-20T04:40:59.578Z,99214.34
2022-11-20T04:43:26.443Z,99220.84
2022-11-20T04:45:56.807Z,99207.72
2022-11-20T04:48:24.216Z,99196.56
2022-11-20T04:50:51.139Z,99201.69
2022-11-20T04:53:18.182Z,99201.50
2022-11-20T04:55:45.414Z,99206.28
2022-11-20T04:58:12.385Z,99206.81
2022-11-20T05:00:39.437Z,99200.47
2022-11-20T05:03:06.631Z,99192.78
2022-11-20T05:05:36.580Z,99188.28
2022-11-20T05:08:03.437Z,99188.16
2022-11-20T05:10:30.241Z,99196.25
2022-11-20T05:12:57.848Z,99196.25
2022-11-20T05:15:24.826Z,99191.38
2022-11-20T05:17:52.332Z,99192.31
2022-11-20T05:20:20.602Z,99181.72
2022-11-20T05:22:47.409Z,99178.56
2022-11-20T05:25:14.264Z,99171.25
2022-11-20T05:27:41.083Z,99168.88
2022-11-20T05:30:08.348Z,99164.09
2022-11-20T05:32:35.139Z,99161.97
2022-11-20T05:35:01.933Z,99170.19
2022-11-20T05:37:28.711Z,99164.66
2022-11-20T05:39:55.491Z,99167.22
2022-11-20T05:42:22.274Z,99176.53
2022-11-20T05:44:49.064Z,99171.03
2022-11-20T05:47:15.892Z,99188.53
2022-11-20T05:49:42.656Z,99174.50
2022-11-20T05:52:10.474Z,99177.31
2022-11-20T05:54:37.235Z,99172.94
2022-11-20T05:57:04.113Z,99174.13
2022-11-20T05:59:30.893Z,99171.75
2022-11-20T06:01:57.667Z,99164.41
2022-11-20T06:04:24.511Z,99167.81
2022-11-20T06:06:51.335Z,99172.19
2022-11-20T06:09:18.176Z,99175.88
2022-11-20T06:11:45.057Z,99172.16
2022-11-20T06:14:11.902Z,99177.19
2022-11-20T06:16:38.712Z,99176.88
2022-11-20T06:19:05.536Z,99188.47
2022-11-20T06:21:33.581Z,99191.69
2022-11-20T06:24:00.451Z,99195.16
2022-11-20T06:26:27.905Z,99193.25
2022-11-20T06:28:55.114Z,99190.44
2022-11-20T06:31:22.680Z,99180.09
2022-11-20T06:33:50.897Z,99177.75
2022-11-20T06:36:19.094Z,99172.69
2022-11-20T06:38:46.014Z,99179.22
2022-11-20T06:41:15.244Z,99175.56
2022-11-20T06:43:42.444Z,99178.25
2022-11-20T06:46:10.751Z,99189.31
2022-11-20T06:48:37.700Z,99194.06
2022-11-20T06:51:05.942Z,99198.34
2022-11-20T06:53:32.818Z,99207.00
2022-11-20T06:56:00.022Z,99202.94
2022-11-20T06:58:27.772Z,99208.50
2022-11-20T07:00:55.008Z,99204.38
2022-11-20T07:03:21.791Z,99201.19
2022-11-20T07:05:48.580Z,99209.50
2022-11-20T07:08:15.361Z,99204.22
2022-11-20T07:10:42.177Z,99211.56
2022-11-20T07:13:09.002Z,99206.44
2022-11-20T07:15:35.844Z,99206.44
2022-11-20T07:18:02.663Z,99194.44
2022-11-20T07:20:29.465Z,99186.69
2022-11-20T07:22:56.723Z,99192.06
2022-11-20T07:25:23.902Z,99179.94
2022-11-20T07:27:50.677Z,99171.63
2022-11-20T07:30:17.704Z,99181.50
2022-11-20T07:32:47.566Z,99174.31
2022-11-20T07:35:14.795Z,99177.81
2022-11-20T07:37:42.510Z,99168.81
2022-11-20T07:40:09.532Z,99178.00
2022-11-20T07:42:36.322Z,99175.63
2022-11-20T07:45:03.131Z,99180.72
2022-11-20T07:47:35.330Z,99179.16
2022-11-20T07:50:02.117Z,99179.84
2022-11-20T07:52:29.606Z,99176.31
2022-11-20T07:54:56.386Z,99185.50
2022-11-20T07:57:28.137Z,99176.31
2022-11-20T07:59:56.401Z,99182.25
2022-11-20T08:02:23.434Z,99179.56
2022-11-20T08:04:50.199Z,99196.56
2022-11-20T08:07:17.224Z,99195.72
2022-11-20T08:09:44.085Z,99203.06
2022-11-20T08:12:18.366Z,99191.09
2022-11-20T08:14:45.140Z,99186.84
2022-11-20T08:17:11.975Z,99193.34
2022-11-20T08:19:38.789Z,99198.47
2022-11-20T08:22:05.576Z,99201.72
2022-11-20T08:24:32.398Z,99212.47
2022-11-20T08:26:59.697Z,99212.72
2022-11-20T08:29:29.627Z,99218.66
2022-11-20T08:31:56.398Z,99223.91
2022-11-20T08:34:23.252Z,99226.22
2022-11-20T08:36:50.097Z,99221.78
2022-11-20T08:39:16.888Z,99220.41
2022-11-20T08:41:43.701Z,99222.13
2022-11-20T08:44:10.555Z,99225.34
2022-11-20T08:46:38.580Z,99226.38
2022-11-20T08:49:05.968Z,99219.00
2022-11-20T08:51:32.974Z,99222.28
2022-11-20T08:53:59.829Z,99226.00
2022-11-20T08:56:26.649Z,99225.72
2022-11-20T09:01:40.361Z,99231.97
2022-11-20T09:04:07.230Z,99240.31
2022-11-20T09:06:34.019Z,99233.78
2022-11-20T09:09:06.138Z,99229.25
2022-11-20T09:11:33.668Z,99233.63
2022-11-20T09:14:00.495Z,99235.88
2022-11-20T09:16:27.273Z,99233.78
2022-11-20T09:19:07.561Z,99230.50
2022-11-20T09:21:40.803Z,99233.75
2022-11-20T09:24:07.678Z,99229.28
2022-11-20T09:26:34.507Z,99228.91
2022-11-20T09:29:01.304Z,99242.34
2022-11-20T09:31:28.151Z,99242.63
2022-11-20T09:33:55.347Z,99242.78
2022-11-20T09:36:22.127Z,99239.38
2022-11-20T09:38:48.938Z,99239.13
2022-11-20T09:41:36.037Z,99243.22
2022-11-20T09:44:29.205Z,99245.75
2022-11-20T09:47:11.963Z,99240.53
2022-11-20T09:49:56.673Z,99248.91
2022-11-20T09:52:31.971Z,99247.34
2022-11-20T09:55:01.777Z,99244.66
2022-11-20T09:57:34.850Z,99242.09
2022-11-20T10:00:03.503Z,99246.63
2022-11-20T10:02:52.301Z,99240.22
2022-11-20T10:05:21.094Z,99247.63
2022-11-20T10:07:54.003Z,99240.22
2022-11-20T10:10:29.490Z,99234.44
2022-11-20T10:13:14.929Z,99234.56
2022-11-20T10:16:00.110Z,99241.97
2022-11-20T10:18:49.142Z,99236.13
2022-11-20T10:21:18.811Z,99232.84
2022-11-20T10:23:45.551Z,99221.66
2022-11-20T10:26:12.305Z,99227.91
2022-11-20T10:28:55.507Z,99225.22
2022-11-20T10:31:45.266Z,99214.72
2022-11-20T10:34:24.064Z,99223.75
2022-11-20T10:37:00.505Z,99215.13
2022-11-20T10:39:36.425Z,99224.19
2022-11-20T10:42:03.393Z,99212.56
2022-11-20T10:44:30.599Z,99218.78
2022-11-20T10:46:57.445Z,99210.00
2022-11-20T10:49:24.381Z,99219.34
2022-11-20T10:52:05.633Z,99213.50
2022-11-20T10:54:35.414Z,99203.19
2022-11-20T10:57:08.786Z,99213.78
2022-11-20T11:00:00.450Z,99209.25
2022-11-20T11:02:33.591Z,99206.69
2022-11-20T11:05:10.349Z,99210.91
2022-11-20T11:07:40.864Z,99209.78
2022-11-20T11:10:40.253Z,99205.41
2022-11-20T11:13:07.064Z,99208.09
2022-11-20T11:15:41.057Z,99209.25
2022-11-20T11:18:11.484Z,99202.84
2022-11-20T11:20:38.564Z,99197.84
2022-11-20T11:23:05.428Z,99199.84
2022-11-20T11:25:36.808Z,99192.72
2022-11-20T11:28:05.340Z,99180.59
2022-11-20T11:30:42.246Z,99183.94
2022-11-20T11:33:20.387Z,99186.31
2022-11-20T11:35:54.504Z,99181.59
2022-11-20T11:38:23.305Z,99183.66
2022-11-20T11:40:50.352Z,99174.56
2022-11-20T11:43:24.522Z,99172.31
2022-11-20T11:45:53.197Z,99162.94
2022-11-20T11:48:19.993Z,99169.72
2022-11-20T11:50:50.483Z,99166.31
2022-11-20T11:53:22.103Z,99162.78
2022-11-20T11:55:54.619Z,99165.63
2022-11-20T11:58:40.262Z,99163.75
2022-11-20T12:01:22.252Z,99164.47
2022-11-20T12:04:04.810Z,99164.34
2022-11-20T12:06:32.281Z,99161.09
2022-11-20T12:09:02.082Z,99166.66
2022-11-20T12:11:38.161Z,99163.13
2022-11-20T12:14:16.174Z,99168.53
2022-11-20T12:16:43.022Z,99166.97
2022-11-20T12:19:14.401Z,99164.97
2022-11-20T12:21:47.346Z,99163.28
2022-11-20T12:24:37.488Z,99153.63
2022-11-20T12:27:26.746Z,99154.47
2022-11-20T12:30:08.265Z,99154.47
2022-11-20T12:32:35.133Z,99161.72
2022-11-20T12:35:12.346Z,99155.84
2022-11-20T12:37:49.421Z,99159.88
2022-11-20T12:40:32.940Z,99159.28
2022-11-20T12:43:08.539Z,99158.13
2022-11-20T12:45:43.102Z,99147.19
2022-11-20T12:48:12.973Z,99145.00
2022-11-20T12:51:07.976Z,99139.91
2022-11-20T12:53:44.831Z,99141.47
2022-11-20T12:56:30.223Z,99135.84
2022-11-20T12:59:28.289Z,99135.44
2022-11-20T13:01:59.399Z,99136.44
2022-11-20T13:04:29.291Z,99134.53
2022-11-20T13:06:57.315Z,99126.91
2022-11-20T13:09:25.269Z,99127.13
2022-11-20T13:12:01.355Z,99132.03
2022-11-20T13:14:46.951Z,99128.50
2022-11-20T13:17:22.871Z,99126.97
2022-11-20T13:19:57.456Z,99123.19
2022-11-20T13:22:27.271Z,99126.41
2022-11-20T13:24:54.174Z,99127.56
2022-11-20T13:27:22.612Z,99128.34
2022-11-20T13:30:03.451Z,99124.50
2022-11-20T13:32:30.448Z,99124.19
2022-11-20T13:34:58.474Z,99123.19
2022-11-20T13:37:35.431Z,99122.09
2022-11-20T13:40:11.188Z,99120.88
2022-11-20T13:42:45.951Z,99114.63
2022-11-20T13:45:22.898Z,99101.56
2022-11-20T13:47:50.254Z,99097.47
2022-11-20T13:50:17.198Z,99090.31
2022-11-20T13:52:46.748Z,99090.06
2022-11-20T13:55:22.819Z,99084.97
2022-11-20T13:57:58.956Z,99086.13
2022-11-20T14:00:26.416Z,99080.72
2022-11-20T14:03:12.065Z,99084.28
2022-11-20T14:05:46.991Z,99078.25
2022-11-20T14:08:18.480Z,99077.81
2022-11-20T14:10:45.319Z,99083.22
2022-11-20T14:13:18.444Z,99083.13
2022-11-20T14:15:45.477Z,99079.94
2022-11-20T14:18:20.095Z,99075.38
2022-11-20T14:20:47.259Z,99079.66
2022-11-20T14:23:29.308Z,99068.31
2022-11-20T14:25:56.664Z,99065.34
2022-11-20T14:28:27.899Z,99075.50
2022-11-20T14:30:54.775Z,99073.09
2022-11-20T14:33:22.051Z,99070.09
2022-11-20T14:35:50.270Z,99070.09
2022-11-20T14:38:19.626Z,99070.41
2022-11-20T14:40:46.458Z,99062.31
2022-11-20T14:43:21.354Z,99057.38
2022-11-20T14:45:52.670Z,99054.28
2022-11-20T14:48:19.846Z,99046.94
2022-11-20T14:50:46.601Z,99046.25
2022-11-20T14:53:22.830Z,99041.84
2022-11-20T14:55:58.638Z,99040.69
2022-11-20T14:58:27.502Z,99032.84
2022-11-20T15:01:01.534Z,99039.22
2022-11-20T15:03:35.442Z,99041.94
2022-11-20T15:06:02.672Z,99049.78
2022-11-20T15:08:29.474Z,99049.63
2022-11-20T15:10:56.618Z,99043.56
2022-11-20T15:13:23.414Z,99033.31
2022-11-20T15:15:51.599Z,99023.81
2022-11-20T15:18:44.559Z,99028.88
2022-11-20T15:21:13.187Z,99022.50
2022-11-20T15:23:39.966Z,99024.72
2022-11-20T15:26:07.432Z,99016.78
2022-11-20T15:28:35.889Z,99019.94
2022-11-20T15:31:02.701Z,99020.09
2022-11-20T15:33:29.635Z,99011.31
2022-11-20T15:35:56.429Z,99008.31
2022-11-20T15:38:23.373Z,99004.06
2022-11-20T15:40:50.256Z,98999.41
2022-11-20T15:43:17.042Z,98987.53
2022-11-20T15:45:48.725Z,98989.75
2022-11-20T15:48:22.427Z,98988.78
2022-11-20T15:50:49.192Z,98995.75
2022-11-20T15:53:15.992Z,98993.50
2022-11-20T15:55:42.784Z,98982.88
2022-11-20T15:58:09.621Z,98986.41
2022-11-20T16:00:36.476Z,98986.56
2022-11-20T16:03:03.514Z,98993.66
2022-11-20T16:05:30.359Z,98988.00
2022-11-20T16:07:57.502Z,98991.56
2022-11-20T16:10:24.416Z,98978.81
2022-11-20T16:12:51.236Z,98974.38
2022-11-20T16:15:18.101Z,98970.88
2022-11-20T16:17:44.920Z,98975.78
2022-11-20T16:20:12.152Z,98966.16
2022-11-20T16:22:38.976Z,98957.63
2022-11-20T16:25:05.988Z,98949.41
2022-11-20T16:27:32.852Z,98948.56
2022-11-20T16:29:59.638Z,98947.53
2022-11-20T16:32:26.456Z,98945.31
2022-11-20T16:34:53.247Z,98944.59
2022-11-20T16:37:20.054Z,98942.22
2022-11-20T16:39:46.868Z,98934.13
2022-11-20T16:42:13.677Z,98932.81
2022-11-20T16:44:40.427Z,98937.91
2022-11-20T16:47:07.250Z,98931.72
2022-11-20T16:49:34.106Z,98930.56
2022-11-20T16:52:00.888Z,98932.09
2022-11-20T16:54:27.978Z,98927.00
2022-11-20T16:56:54.906Z,98922.38
2022-11-20T16:59:21.668Z,98918.53
2022-11-20T17:01:48.558Z,98910.88
2022-11-20T17:04:15.469Z,98911.75
2022-11-20T17:06:43.301Z,98918.44
2022-11-20T17:09:10.298Z,98911.22
2022-11-20T17:11:37.190Z,98895.88
2022-11-20T17:14:04.030Z,98896.88
2022-11-20T17:16:31.236Z,98898.81
2022-11-20T17:19:03.050Z,98888.34
2022-11-20T17:21:31.937Z,98887.34
2022-11-20T17:24:02.359Z,98883.38
2022-11-20T17:26:29.258Z,98877.66
2022-11-20T17:28:57.590Z,98880.81
2022-11-20T17:31:24.816Z,98876.97
2022-11-20T17:33:52.668Z,98879.66
2022-11-20T17:36:20.363Z,98879.13
2022-11-20T17:38:47.433Z,98874.72
2022-11-20T17:41:15.732Z,98870.03
2022-11-20T17:43:42.649Z,98866.50
2022-11-20T17:46:11.047Z,98861.66
2022-11-20T17:48:38.248Z,98867.88
2022-11-20T17:51:06.142Z,98861.34
2022-11-20T17:53:33.760Z,98868.59
2022-11-20T17:56:00.681Z,98867.13
2022-11-20T17:58:28.091Z,98870.88
2022-11-20T18:00:54.908Z,98868.97
2022-11-20T18:03:24.035Z,98865.78
2022-11-20T18:05:50.866Z,98870.06
2022-11-20T18:08:17.765Z,98865.19
2022-11-20T18:10:48.152Z,98865.19
2022-11-20T18:13:15.327Z,98866.44
2022-11-20T18:15:42.160Z,98847.50
2022-11-20T18:18:08.979Z,98837.09
2022-11-20T18:20:39.864Z,98835.94
2022-11-20T18:23:06.971Z,98836.22
2022-11-20T18:25:34.809Z,98828.34
2022-11-20T18:28:01.585Z,98818.06
2022-11-20T18:30:29.390Z,98803.72
2022-11-20T18:32:57.212Z,98809.25
2022-11-20T18:35:26.786Z,98805.69
2022-11-20T18:37:53.585Z,98801.09
2022-11-20T18:40:20.355Z,98796.53
2022-11-20T18:42:47.138Z,98785.59
2022-11-20T18:45:13.935Z,98784.00
2022-11-20T18:47:40.806Z,98773.59
2022-11-20T18:50:08.447Z,98783.34
2022-11-20T18:52:39.794Z,98770.91
2022-11-20T18:55:06.913Z,98769.75
2022-11-20T18:57:33.680Z,98770.66
2022-11-20T19:00:06.450Z,98769.50
2022-11-20T19:05:22.559Z,98766.16
2022-11-20T19:07:49.401Z,98757.78
2022-11-20T19:10:18.030Z,98757.72
2022-11-20T19:12:44.830Z,98754.66
2022-11-20T19:15:11.705Z,98739.66
2022-11-20T19:17:39.688Z,98742.50
2022-11-20T19:20:06.714Z,98740.81
2022-11-20T19:22:33.520Z,98739.50
2022-11-20T19:25:00.326Z,98728.94
2022-11-20T19:27:27.147Z,98726.09
2022-11-20T19:29:54.098Z,98722.06
2022-11-20T19:32:20.931Z,98719.22
2022-11-20T19:34:47.808Z,98716.53
2022-11-20T19:37:14.608Z,98714.50
2022-11-20T19:39:41.397Z,98712.47
2022-11-20T19:42:08.724Z,98702.94
2022-11-20T19:44:39.212Z,98699.06
2022-11-20T19:47:15.091Z,98698.25
2022-11-20T19:49:42.519Z,98693.38
2022-11-20T19:52:09.350Z,98688.03
2022-11-20T19:54:36.138Z,98687.88
2022-11-20T19:57:03.068Z,98674.38
2022-11-20T19:59:29.866Z,98682.47
2022-11-20T20:01:56.670Z,98675.41
2022-11-20T20:04:23.492Z,98671.03
2022-11-20T20:06:50.319Z,98671.56
2022-11-20T20:09:17.098Z,98670.88
2022-11-20T20:11:46.700Z,98658.56
2022-11-20T20:14:14.537Z,98654.69
2022-11-20T20:16:41.843Z,98659.06
2022-11-20T20:19:12.045Z,98648.59
2022-11-20T20:21:38.826Z,98648.91
2022-11-20T20:24:05.894Z,98648.44
2022-11-20T20:26:32.792Z,98640.00
2022-11-20T20:29:00.695Z,98646.28
2022-11-20T20:31:28.672Z,98638.19
2022-11-20T20:33:55.925Z,98637.38
2022-11-20T20:36:23.729Z,98638.94
2022-11-20T20:38:54.274Z,98645.41
2022-11-20T20:41:22.254Z,98641.22
2022-11-20T20:43:49.088Z,98632.13
2022-11-20T20:46:15.899Z,98633.16
2022-11-20T20:48:42.667Z,98639.56
2022-11-20T20:51:09.520Z,98636.22
2022-11-20T20:53:36.325Z,98633.53
2022-11-20T20:56:15.489Z,98626.41
2022-11-20T20:58:42.279Z,98623.88
2022-11-20T21:01:16.637Z,98626.94
2022-11-20T21:03:43.477Z,98616.13
2022-11-20T21:06:11.966Z,98622.88
2022-11-20T21:08:41.102Z,98613.41
2022-11-20T21:11:13.576Z,98611.84
2022-11-20T21:13:41.038Z,98613.19
2022-11-20T21:16:08.192Z,98607.13
2022-11-20T21:18:35.354Z,98614.84
2022-11-20T21:21:08.125Z,98603.56
2022-11-20T21:23:35.821Z,98606.94
2022-11-20T21:26:06.089Z,98604.38
2022-11-20T21:28:34.026Z,98592.72
2022-11-20T21:31:04.992Z,98593.91
2022-11-20T21:33:39.111Z,98587.97
2022-11-20T21:36:06.756Z,98592.50
2022-11-20T21:38:33.629Z,98587.09
2022-11-20T21:41:00.462Z,98581.34
2022-11-20T21:43:27.383Z,98584.53
2022-11-20T21:45:54.251Z,98577.75
2022-11-20T21:48:22.619Z,98587.41
2022-11-20T21:50:49.392Z,98581.66
2022-11-20T21:53:16.197Z,98582.31
2022-11-20T21:55:42.980Z,98582.16
2022-11-20T21:58:09.782Z,98576.91
2022-11-20T22:00:36.672Z,98583.19
2022-11-20T22:03:03.458Z,98587.72
2022-11-20T22:05:30.323Z,98582.16
2022-11-20T22:07:57.115Z,98583.69
2022-11-20T22:10:23.901Z,98581.13
2022-11-20T22:12:50.721Z,98572.19
2022-11-20T22:15:39.197Z,98575.22
2022-11-20T22:18:10.545Z,98586.00
2022-11-20T22:20:37.355Z,98577.22
2022-11-20T22:23:04.581Z,98571.28
2022-11-20T22:25:34.283Z,98558.97
2022-11-20T22:28:01.249Z,98558.50
2022-11-20T22:30:28.029Z,98563.03
2022-11-20T22:32:54.867Z,98563.22
2022-11-20T22:35:21.974Z,98558.13
2022-11-20T22:37:49.263Z,98563.88
2022-11-20T22:40:16.089Z,98537.16
2022-11-20T22:42:46.471Z,98541.53
2022-11-20T22:45:13.284Z,98544.38
2022-11-20T22:47:40.130Z,98552.50
2022-11-20T22:50:07.104Z,98549.47
2022-11-20T22:52:33.905Z,98544.06
2022-11-20T22:55:00.663Z,98535.78
2022-11-20T22:57:27.467Z,98554.03
2022-11-20T22:59:54.251Z,98549.47
2022-11-20T23:02:21.047Z,98549.81
2022-11-20T23:04:48.843Z,98544.38
2022-11-20T23:07:15.671Z,98547.25
2022-11-20T23:09:42.488Z,98551.84
2022-11-20T23:12:09.269Z,98533.56
2022-11-20T23:14:36.063Z,98543.19
2022-11-20T23:17:02.853Z,98536.94
2022-11-20T23:19:29.648Z,98541.97
2022-11-20T23:21:56.455Z,98549.44
2022-11-20T23:24:23.226Z,98544.34
2022-11-20T23:26:50.001Z,98545.53
2022-11-20T23:29:16.938Z,98542.31
2022-11-20T23:31:43.744Z,98537.38
2022-11-20T23:34:10.535Z,98547.22
2022-11-20T23:36:37.317Z,98554.13
2022-11-20T23:39:04.101Z,98535.69
2022-11-20T23:41:30.933Z,98533.69
2022-11-20T23:43:57.687Z,98550.09
2022-11-20T23:46:24.467Z,98556.78
2022-11-20T23:48:51.245Z,98549.34
2022-11-20T23:51:18.019Z,98552.19
2022-11-20T23:53:44.824Z,98551.19
2022-11-20T23:56:11.634Z,98552.75
2022-11-20T23:58:38.569Z,98551.69
